createdAt,value
2017-04-02T00:01:43.685Z,1007.89
2017-04-02T00:06:40.407Z,1007.82
2017-04-02T00:11:38.227Z,1007.94
2017-04-02T00:16:34.808Z,1007.98
2017-04-02T00:21:32.014Z,1007.89
2017-04-02T00:26:28.887Z,1007.96
2017-04-02T00:31:25.895Z,1007.94
2017-04-02T00:36:22.093Z,1008.02
2017-04-02T00:41:19.120Z,1007.98
2017-04-02T00:46:15.841Z,1008.08
2017-04-02T00:51:13.131Z,1008.19
2017-04-02T00:56:09.933Z,1008.26
2017-04-02T01:01:06.640Z,1008.30
2017-04-02T01:06:03.183Z,1008.22
2017-04-02T01:10:59.902Z,1008.33
2017-04-02T01:15:56.438Z,1008.32
2017-04-02T01:20:53.200Z,1008.32
2017-04-02T01:25:49.579Z,1008.24
2017-04-02T01:30:46.161Z,1008.39
2017-04-02T01:35:42.879Z,1008.40
2017-04-02T01:40:39.243Z,1008.48
2017-04-02T01:45:35.884Z,1008.55
2017-04-02T01:50:32.808Z,1008.63
2017-04-02T01:55:29.367Z,1008.60
2017-04-02T02:00:26.466Z,1008.72
2017-04-02T02:05:22.411Z,1008.70
2017-04-02T02:10:19.546Z,1008.70
2017-04-02T02:15:16.335Z,1008.72
2017-04-02T02:20:13.648Z,1008.74
2017-04-02T02:25:09.789Z,1008.76
2017-04-02T02:30:10.917Z,1008.80
2017-04-02T02:35:06.932Z,1008.83
2017-04-02T02:40:03.612Z,1008.97
2017-04-02T02:45:00.150Z,1008.95
2017-04-02T02:49:56.919Z,1008.99
2017-04-02T02:54:53.335Z,1009.06
2017-04-02T02:59:50.094Z,1009.07
2017-04-02T03:04:46.799Z,1009.09
2017-04-02T03:09:43.453Z,1009.23
2017-04-02T03:14:41.337Z,1009.22
2017-04-02T03:19:37.399Z,1009.21
2017-04-02T03:24:34.540Z,1009.26
2017-04-02T03:29:31.953Z,1009.33
2017-04-02T03:34:29.549Z,1009.38
2017-04-02T03:39:26.011Z,1009.30
2017-04-02T03:44:23.204Z,1009.39
2017-04-02T03:49:19.505Z,1009.35
2017-04-02T03:54:16.405Z,1009.42
2017-04-02T03:59:12.907Z,1009.47
2017-04-02T04:04:10.653Z,1009.41
2017-04-02T04:09:07.288Z,1009.47
2017-04-02T04:14:04.110Z,1009.47
2017-04-02T04:19:00.715Z,1009.55
2017-04-02T04:23:57.121Z,1009.62
2017-04-02T04:28:53.792Z,1009.72
2017-04-02T04:33:50.527Z,1009.81
2017-04-02T04:38:47.332Z,1009.90
2017-04-02T04:43:44.551Z,1009.86
2017-04-02T04:48:41.197Z,1009.96
2017-04-02T04:53:37.855Z,1009.98
2017-04-02T04:58:34.275Z,1009.93
2017-04-02T05:03:31.498Z,1010.16
2017-04-02T05:08:27.860Z,1010.24
2017-04-02T05:13:24.336Z,1010.31
2017-04-02T05:18:20.979Z,1010.34
2017-04-02T05:23:17.587Z,1010.49
2017-04-02T05:28:14.544Z,1010.52
2017-04-02T05:33:11.118Z,1010.53
2017-04-02T05:38:07.738Z,1010.60
2017-04-02T05:43:04.316Z,1010.58
2017-04-02T05:48:01.419Z,1010.65
2017-04-02T05:52:57.921Z,1010.73
2017-04-02T05:57:54.308Z,1010.84
2017-04-02T06:02:50.760Z,1010.83
2017-04-02T06:07:47.377Z,1010.92
2017-04-02T06:12:44.061Z,1011.01
2017-04-02T06:17:41.319Z,1011.11
2017-04-02T06:22:37.968Z,1011.18
2017-04-02T06:27:36.102Z,1011.32
2017-04-02T06:32:32.504Z,1011.25
2017-04-02T06:37:29.139Z,1011.38
2017-04-02T06:42:25.635Z,1011.50
2017-04-02T06:47:22.482Z,1011.54
2017-04-02T06:52:19.654Z,1011.56
2017-04-02T06:57:16.524Z,1011.68
2017-04-02T07:02:13.992Z,1011.70
2017-04-02T07:07:11.514Z,1011.72
2017-04-02T07:12:08.292Z,1011.82
2017-04-02T07:17:04.918Z,1011.84
2017-04-02T07:22:01.780Z,1011.83
2017-04-02T07:26:58.584Z,1011.78
2017-04-02T07:31:55.600Z,1011.96
2017-04-02T07:36:52.203Z,1011.97
2017-04-02T07:41:48.985Z,1011.98
2017-04-02T07:46:46.039Z,1012.00
2017-04-02T07:51:42.735Z,1012.04
2017-04-02T07:56:39.768Z,1012.25
2017-04-02T08:01:37.134Z,1012.21
2017-04-02T08:06:34.226Z,1012.30
2017-04-02T08:11:31.548Z,1012.47
2017-04-02T08:16:28.515Z,1012.41
2017-04-02T08:21:25.689Z,1012.42
2017-04-02T08:26:22.253Z,1012.57
2017-04-02T08:31:19.141Z,1012.59
2017-04-02T08:36:16.129Z,1012.68
2017-04-02T08:41:13.437Z,1012.74
2017-04-02T08:46:09.898Z,1012.83
2017-04-02T08:51:06.536Z,1012.85
2017-04-02T09:01:05.602Z,1012.88
2017-04-02T09:06:02.255Z,1012.95
2017-04-02T09:10:59.169Z,1013.01
2017-04-02T09:15:55.780Z,1012.95
2017-04-02T09:20:53.400Z,1013.04
2017-04-02T09:25:50.845Z,1013.06
2017-04-02T09:35:49.399Z,1013.22
2017-04-02T09:40:45.579Z,1013.37
2017-04-02T09:45:42.393Z,1013.41
2017-04-02T09:50:40.430Z,1013.53
2017-04-02T09:55:38.341Z,1013.50
2017-04-02T10:00:35.592Z,1013.56
2017-04-02T10:05:33.523Z,1013.57
2017-04-02T10:10:30.293Z,1013.59
2017-04-02T10:15:27.447Z,1013.72
2017-04-02T10:20:25.215Z,1013.67
2017-04-02T10:25:22.576Z,1013.75
2017-04-02T10:30:20.497Z,1013.66
2017-04-02T10:35:18.845Z,1013.69
2017-04-02T10:40:16.591Z,1013.70
2017-04-02T10:45:13.087Z,1013.58
2017-04-02T10:50:09.029Z,1013.60
2017-04-02T10:55:05.351Z,1013.68
2017-04-02T11:00:02.609Z,1013.69
2017-04-02T11:05:01.213Z,1013.59
2017-04-02T11:09:59.396Z,1013.70
2017-04-02T11:14:59.904Z,1013.61
2017-04-02T11:19:55.947Z,1013.69
2017-04-02T11:24:54.126Z,1013.48
2017-04-02T11:29:49.980Z,1013.55
2017-04-02T11:34:46.660Z,1013.65
2017-04-02T11:39:47.009Z,1013.69
2017-04-02T11:44:45.186Z,1013.71
2017-04-02T11:54:48.407Z,1013.69
2017-04-02T11:59:46.698Z,1013.58
2017-04-02T12:04:43.055Z,1013.74
2017-04-02T12:09:42.173Z,1013.71
2017-04-02T12:14:41.457Z,1013.64
2017-04-02T12:19:39.514Z,1013.61
2017-04-02T12:24:35.910Z,1013.63
2017-04-02T12:29:33.021Z,1013.59
2017-04-02T12:34:30.940Z,1013.68
2017-04-02T12:39:28.217Z,1013.62
2017-04-02T12:44:25.079Z,1013.66
2017-04-02T12:49:20.137Z,1013.66
2017-04-02T12:54:20.030Z,1013.74
2017-04-02T12:59:18.325Z,1013.62
2017-04-02T13:04:14.407Z,1013.59
2017-04-02T13:09:11.272Z,1013.65
2017-04-02T13:14:10.151Z,1013.72
2017-04-02T13:19:06.296Z,1013.68
2017-04-02T13:24:04.701Z,1013.72
2017-04-02T13:29:03.314Z,1013.72
2017-04-02T13:33:57.741Z,1013.78
2017-04-02T13:38:56.389Z,1013.83
2017-04-02T13:43:55.289Z,1013.78
2017-04-02T13:48:54.414Z,1013.85
2017-04-02T13:58:55.166Z,1014.04
2017-04-02T14:03:52.850Z,1014.00
2017-04-02T14:08:50.436Z,1014.00
2017-04-02T14:13:47.111Z,1014.05
2017-04-02T14:18:43.951Z,1014.09
2017-04-02T14:23:42.838Z,1014.07
2017-04-02T14:28:39.123Z,1014.13
2017-04-02T14:33:35.990Z,1014.12
2017-04-02T14:43:41.147Z,1014.05
2017-04-02T14:48:39.292Z,1014.16
2017-04-02T14:53:36.392Z,1014.10
2017-04-02T14:58:37.356Z,1014.11
2017-04-02T15:03:34.287Z,1014.03
2017-04-02T15:08:30.669Z,1014.07
2017-04-02T15:13:27.607Z,1014.14
2017-04-02T15:18:24.159Z,1014.28
2017-04-02T15:23:20.855Z,1014.20
2017-04-02T15:28:16.707Z,1014.26
2017-04-02T15:33:13.118Z,1014.30
2017-04-02T15:38:10.019Z,1014.44
2017-04-02T15:43:06.461Z,1014.33
2017-04-02T15:48:03.025Z,1014.33
2017-04-02T15:52:59.704Z,1014.29
2017-04-02T15:57:56.472Z,1014.38
2017-04-02T16:07:56.519Z,1014.50
2017-04-02T16:12:52.697Z,1014.54
2017-04-02T16:17:48.951Z,1014.61
2017-04-02T16:22:46.678Z,1014.59
2017-04-02T16:27:46.355Z,1014.60
2017-04-02T16:37:44.509Z,1014.71
2017-04-02T16:42:41.479Z,1014.77
2017-04-02T16:47:41.590Z,1014.78
2017-04-02T16:52:38.021Z,1014.86
2017-04-02T16:57:34.069Z,1014.90
2017-04-02T17:07:33.415Z,1014.99
2017-04-02T17:12:30.670Z,1014.97
2017-04-02T17:17:26.922Z,1015.12
2017-04-02T17:27:29.908Z,1015.14
2017-04-02T17:32:27.521Z,1015.25
2017-04-02T17:37:23.833Z,1015.26
2017-04-02T17:42:20.819Z,1015.28
2017-04-02T17:47:19.818Z,1015.30
2017-04-02T17:52:17.069Z,1015.42
2017-04-02T17:57:13.158Z,1015.49
2017-04-02T18:02:10.088Z,1015.64
2017-04-02T18:07:07.978Z,1015.65
2017-04-02T18:12:06.383Z,1015.72
2017-04-02T18:17:02.568Z,1015.69
2017-04-02T18:21:58.989Z,1015.80
2017-04-02T18:26:55.496Z,1015.94
2017-04-02T18:31:52.015Z,1015.93
2017-04-02T18:36:48.643Z,1015.99
2017-04-02T18:41:45.452Z,1016.14
2017-04-02T18:46:46.592Z,1016.23
2017-04-02T18:51:42.155Z,1016.23
2017-04-02T18:56:38.602Z,1016.32
2017-04-02T19:01:34.960Z,1016.48
2017-04-02T19:06:31.945Z,1016.40
2017-04-02T19:11:28.318Z,1016.48
2017-04-02T19:16:25.136Z,1016.66
2017-04-02T19:21:21.401Z,1016.76
2017-04-02T19:26:18.701Z,1016.75
2017-04-02T19:31:15.061Z,1016.86
2017-04-02T19:36:11.020Z,1016.86
2017-04-02T19:41:08.028Z,1016.98
2017-04-02T19:46:04.303Z,1016.97
2017-04-02T19:51:01.523Z,1017.08
2017-04-02T19:55:58.069Z,1017.10
2017-04-02T20:00:56.122Z,1017.09
2017-04-02T20:15:55.807Z,1017.27
2017-04-02T20:20:52.355Z,1017.32
2017-04-02T20:25:49.010Z,1017.36
2017-04-02T20:30:45.553Z,1017.49
2017-04-02T20:35:42.428Z,1017.54
2017-04-02T20:40:38.891Z,1017.61
2017-04-02T20:45:35.347Z,1017.64
2017-04-02T20:50:31.794Z,1017.65
2017-04-02T20:55:30.434Z,1017.67
2017-04-02T21:00:26.738Z,1017.75
2017-04-02T21:05:23.132Z,1017.83
2017-04-02T21:10:19.756Z,1017.89
2017-04-02T21:15:16.427Z,1017.89
2017-04-02T21:20:12.876Z,1017.93
2017-04-02T21:25:12.460Z,1017.95
2017-04-02T21:30:08.623Z,1018.00
2017-04-02T21:35:05.394Z,1018.07
2017-04-02T21:40:02.163Z,1018.08
2017-04-02T21:44:58.764Z,1018.20
2017-04-02T21:49:55.325Z,1018.21
2017-04-02T21:54:51.383Z,1018.33
2017-04-02T21:59:48.106Z,1018.40
2017-04-02T22:04:45.067Z,1018.50
2017-04-02T22:09:41.526Z,1018.45
2017-04-02T22:14:39.488Z,1018.47
2017-04-02T22:19:35.579Z,1018.49
2017-04-02T22:24:32.439Z,1018.52
2017-04-02T22:29:28.852Z,1018.50
2017-04-02T22:34:25.749Z,1018.57
2017-04-02T22:39:22.452Z,1018.54
2017-04-02T22:44:18.932Z,1018.55
2017-04-02T22:49:15.252Z,1018.60
2017-04-02T22:54:11.893Z,1018.67
2017-04-02T22:59:08.334Z,1018.67
2017-04-02T23:04:05.137Z,1018.70
2017-04-02T23:09:01.437Z,1018.80
2017-04-02T23:13:59.105Z,1018.79
2017-04-02T23:18:56.175Z,1018.90
2017-04-02T23:23:52.659Z,1018.91
2017-04-02T23:28:48.962Z,1018.86
2017-04-02T23:33:45.451Z,1018.90
2017-04-02T23:38:42.302Z,1018.89
2017-04-02T23:43:39.644Z,1018.94
2017-04-02T23:48:36.299Z,1018.97
2017-04-02T23:53:33.379Z,1018.98
2017-04-02T23:58:31.325Z,1019.01
